createdAt,value
2018-01-29T00:00:38.048Z,10.3
2018-01-29T00:01:40.830Z,10.3
2018-01-29T00:02:43.333Z,10.3
2018-01-29T00:03:46.108Z,10.3
2018-01-29T00:04:48.630Z,10.3
2018-01-29T00:05:51.128Z,10.3
2018-01-29T00:06:53.606Z,10.3
2018-01-29T00:07:56.118Z,10.3
2018-01-29T00:08:58.617Z,10.3
2018-01-29T00:10:01.414Z,10.3
2018-01-29T00:11:04.197Z,10.3
2018-01-29T00:12:06.701Z,10.3
2018-01-29T00:13:09.185Z,10.3
2018-01-29T00:14:11.983Z,10.3
2018-01-29T00:15:14.476Z,10.3
2018-01-29T00:16:16.971Z,10.3
2018-01-29T00:17:19.473Z,10.3
2018-01-29T00:18:21.979Z,10.3
2018-01-29T00:19:24.479Z,10.3
2018-01-29T00:20:26.988Z,10.3
2018-01-29T00:21:29.763Z,10.3
2018-01-29T00:22:32.270Z,10.3
2018-01-29T00:23:34.764Z,10.3
2018-01-29T00:24:37.266Z,10.4
2018-01-29T00:25:39.761Z,10.3
2018-01-29T00:26:42.261Z,10.4
2018-01-29T00:27:44.751Z,10.3
2018-01-29T00:28:47.261Z,10.3
2018-01-29T00:29:49.744Z,10.3
2018-01-29T00:30:52.238Z,10.3
2018-01-29T00:31:54.736Z,10.3
2018-01-29T00:32:57.238Z,10.3
2018-01-29T00:33:59.743Z,10.3
2018-01-29T00:35:02.246Z,10.3
2018-01-29T00:36:04.740Z,10.3
2018-01-29T00:37:07.246Z,10.3
2018-01-29T00:38:09.735Z,10.3
2018-01-29T00:39:12.230Z,10.3
2018-01-29T00:40:15.039Z,10.4
2018-01-29T00:41:17.824Z,10.4
2018-01-29T00:42:20.314Z,10.4
2018-01-29T00:43:22.813Z,10.4
2018-01-29T00:44:25.313Z,10.4
2018-01-29T00:45:27.817Z,10.4
2018-01-29T00:46:30.327Z,10.4
2018-01-29T00:47:32.814Z,10.4
2018-01-29T00:48:35.604Z,10.4
2018-01-29T00:49:38.111Z,10.4
2018-01-29T00:50:40.895Z,10.4
2018-01-29T00:51:43.401Z,10.4
2018-01-29T00:52:45.892Z,10.4
2018-01-29T00:53:48.397Z,10.4
2018-01-29T00:54:50.911Z,10.4
2018-01-29T00:55:53.412Z,10.4
2018-01-29T00:56:55.904Z,10.4
2018-01-29T00:57:58.403Z,10.4
2018-01-29T00:59:00.904Z,10.4
2018-01-29T01:00:03.401Z,10.4
2018-01-29T01:01:05.906Z,10.3
2018-01-29T01:02:08.386Z,10.3
2018-01-29T01:03:10.881Z,10.3
2018-01-29T01:04:13.396Z,10.4
2018-01-29T01:05:15.885Z,10.4
2018-01-29T01:06:18.398Z,10.4
2018-01-29T01:07:20.890Z,10.3
2018-01-29T01:08:23.980Z,10.3
2018-01-29T01:09:26.481Z,10.4
2018-01-29T01:10:29.271Z,10.4
2018-01-29T01:11:31.761Z,10.4
2018-01-29T01:12:34.277Z,10.4
2018-01-29T01:13:36.758Z,10.4
2018-01-29T01:14:39.262Z,10.4
2018-01-29T01:15:41.778Z,10.4
2018-01-29T01:16:44.281Z,10.4
2018-01-29T01:17:46.782Z,10.4
2018-01-29T01:18:49.282Z,10.4
2018-01-29T01:19:52.056Z,10.4
2018-01-29T01:20:54.570Z,10.4
2018-01-29T01:21:57.065Z,10.4
2018-01-29T01:22:59.567Z,10.4
2018-01-29T01:24:02.065Z,10.4
2018-01-29T01:25:04.568Z,10.4
2018-01-29T01:26:07.057Z,10.4
2018-01-29T01:27:09.558Z,10.4
2018-01-29T01:28:12.045Z,10.4
2018-01-29T01:29:14.538Z,10.4
2018-01-29T01:30:17.047Z,10.4
2018-01-29T01:31:19.547Z,10.4
2018-01-29T01:32:22.325Z,10.4
2018-01-29T01:33:24.829Z,10.4
2018-01-29T01:34:27.331Z,10.4
2018-01-29T01:35:29.823Z,10.4
2018-01-29T01:36:32.316Z,10.4
2018-01-29T01:37:34.829Z,10.4
2018-01-29T01:38:37.332Z,10.4
2018-01-29T01:39:39.823Z,10.4
2018-01-29T01:40:42.330Z,10.4
2018-01-29T01:41:44.830Z,10.4
2018-01-29T01:42:47.324Z,10.4
2018-01-29T01:43:49.832Z,10.4
2018-01-29T01:44:52.629Z,10.4
2018-01-29T01:45:55.127Z,10.4
2018-01-29T01:46:57.638Z,10.4
2018-01-29T01:48:00.129Z,10.4
2018-01-29T01:49:02.629Z,10.4
2018-01-29T01:50:05.125Z,10.4
2018-01-29T01:51:07.625Z,10.4
2018-01-29T01:52:10.147Z,10.4
2018-01-29T01:53:12.640Z,10.4
2018-01-29T01:54:15.409Z,10.4
2018-01-29T01:55:17.911Z,10.4
2018-01-29T01:56:20.409Z,10.4
2018-01-29T01:57:22.906Z,10.4
2018-01-29T01:58:25.409Z,10.4
2018-01-29T01:59:28.187Z,10.4
2018-01-29T02:00:30.691Z,10.4
2018-01-29T02:01:33.201Z,10.4
2018-01-29T02:02:35.695Z,10.4
2018-01-29T02:03:38.197Z,10.3
2018-01-29T02:04:40.691Z,10.3
2018-01-29T02:05:43.485Z,10.3
2018-01-29T02:06:45.981Z,10.3
2018-01-29T02:07:48.793Z,10.3
2018-01-29T02:08:51.299Z,10.3
2018-01-29T02:09:53.804Z,10.3
2018-01-29T02:10:56.291Z,10.3
2018-01-29T02:11:58.796Z,10.3
2018-01-29T02:13:01.299Z,10.3
2018-01-29T02:14:03.793Z,10.3
2018-01-29T02:15:06.584Z,10.3
2018-01-29T02:16:09.398Z,10.3
2018-01-29T02:17:11.894Z,10.2
2018-01-29T02:18:14.408Z,10.2
2018-01-29T02:19:16.902Z,10.3
2018-01-29T02:20:19.404Z,10.2
2018-01-29T02:21:21.890Z,10.2
2018-01-29T02:22:24.390Z,10.2
2018-01-29T02:23:27.195Z,10.2
2018-01-29T02:24:29.695Z,10.2
2018-01-29T02:25:32.175Z,10.2
2018-01-29T02:26:34.683Z,10.2
2018-01-29T02:27:37.186Z,10.2
2018-01-29T02:28:39.690Z,10.2
2018-01-29T02:29:42.194Z,10.2
2018-01-29T02:30:44.691Z,10.2
2018-01-29T02:31:47.478Z,10.2
2018-01-29T02:32:49.983Z,10.2
2018-01-29T02:33:52.477Z,10.2
2018-01-29T02:34:54.978Z,10.2
2018-01-29T02:35:57.777Z,10.2
2018-01-29T02:37:00.273Z,10.2
2018-01-29T02:38:02.784Z,10.2
2018-01-29T02:39:05.567Z,10.2
2018-01-29T02:40:08.368Z,10.2
2018-01-29T02:41:10.864Z,10.2
2018-01-29T02:42:13.352Z,10.2
2018-01-29T02:43:15.846Z,10.2
2018-01-29T02:44:18.339Z,10.2
2018-01-29T02:45:20.829Z,10.2
2018-01-29T02:46:23.346Z,10.2
2018-01-29T02:47:25.844Z,10.2
2018-01-29T02:48:28.343Z,10.2
2018-01-29T02:49:31.700Z,10.2
2018-01-29T02:50:34.206Z,10.2
2018-01-29T02:51:37.008Z,10.2
2018-01-29T02:52:39.838Z,10.2
2018-01-29T02:53:42.334Z,10.2
2018-01-29T02:54:44.836Z,10.2
2018-01-29T02:55:47.333Z,10.2
2018-01-29T02:56:49.841Z,10.2
2018-01-29T02:57:52.340Z,10.2
2018-01-29T02:58:54.838Z,10.2
2018-01-29T02:59:57.331Z,10.2
2018-01-29T03:01:00.149Z,10.2
2018-01-29T03:02:02.645Z,10.2
2018-01-29T03:03:05.136Z,10.2
2018-01-29T03:04:07.637Z,10.3
2018-01-29T03:05:10.140Z,10.2
2018-01-29T03:06:12.629Z,10.2
2018-01-29T03:07:15.413Z,10.3
2018-01-29T03:08:17.923Z,10.2
2018-01-29T03:09:20.425Z,10.3
2018-01-29T03:10:22.913Z,10.3
2018-01-29T03:11:25.411Z,10.2
2018-01-29T03:12:27.911Z,10.2
2018-01-29T03:13:30.408Z,10.3
2018-01-29T03:14:32.914Z,10.2
2018-01-29T03:15:35.389Z,10.2
2018-01-29T03:16:37.893Z,10.2
2018-01-29T03:17:40.407Z,10.2
2018-01-29T03:18:43.192Z,10.3
2018-01-29T03:19:45.682Z,10.2
2018-01-29T03:20:48.190Z,10.2
2018-01-29T03:21:50.692Z,10.2
2018-01-29T03:22:53.186Z,10.3
2018-01-29T03:23:55.695Z,10.3
2018-01-29T03:24:58.176Z,10.2
2018-01-29T03:26:00.682Z,10.3
2018-01-29T03:27:03.185Z,10.3
2018-01-29T03:28:05.667Z,10.3
2018-01-29T03:29:08.168Z,10.3
2018-01-29T03:30:10.665Z,10.3
2018-01-29T03:31:13.169Z,10.3
2018-01-29T03:32:15.672Z,10.3
2018-01-29T03:33:18.173Z,10.3
2018-01-29T03:34:20.663Z,10.3
2018-01-29T03:35:23.165Z,10.3
2018-01-29T03:36:25.955Z,10.3
2018-01-29T03:37:28.456Z,10.3
2018-01-29T03:38:30.955Z,10.3
2018-01-29T03:39:33.461Z,10.3
2018-01-29T03:40:35.950Z,10.3
2018-01-29T03:41:38.761Z,10.2
2018-01-29T03:42:41.254Z,10.3
2018-01-29T03:43:43.752Z,10.3
2018-01-29T03:44:46.252Z,10.3
2018-01-29T03:45:49.322Z,10.2
2018-01-29T03:46:51.824Z,10.2
2018-01-29T03:47:54.326Z,10.3
2018-01-29T03:48:56.826Z,10.2
2018-01-29T03:49:59.614Z,10.2
2018-01-29T03:51:02.412Z,10.3
2018-01-29T03:52:04.918Z,10.2
2018-01-29T03:53:07.693Z,10.2
2018-01-29T03:54:10.486Z,10.2
2018-01-29T03:55:12.985Z,10.2
2018-01-29T03:56:15.483Z,10.2
2018-01-29T03:57:17.976Z,10.2
2018-01-29T03:58:20.479Z,10.2
2018-01-29T03:59:22.969Z,10.2
2018-01-29T04:00:25.480Z,10.2
2018-01-29T04:01:27.980Z,10.2
2018-01-29T04:02:30.476Z,10.2
2018-01-29T04:03:32.981Z,10.2
2018-01-29T04:04:35.481Z,10.2
2018-01-29T04:05:37.968Z,10.3
2018-01-29T04:06:40.474Z,10.3
2018-01-29T04:07:42.969Z,10.2
2018-01-29T04:08:45.470Z,10.2
2018-01-29T04:09:48.248Z,10.2
2018-01-29T04:10:50.753Z,10.3
2018-01-29T04:11:53.246Z,10.3
2018-01-29T04:12:55.757Z,10.3
2018-01-29T04:13:58.253Z,10.3
2018-01-29T04:15:00.748Z,10.2
2018-01-29T04:16:03.246Z,10.2
2018-01-29T04:17:05.750Z,10.2
2018-01-29T04:18:08.247Z,10.2
2018-01-29T04:19:10.753Z,10.2
2018-01-29T04:20:13.251Z,10.1
2018-01-29T04:21:15.745Z,10.1
2018-01-29T04:22:18.245Z,10.1
2018-01-29T04:23:20.743Z,10.1
2018-01-29T04:24:23.232Z,10.1
2018-01-29T04:25:26.040Z,10.1
2018-01-29T04:26:28.524Z,10.1
2018-01-29T04:27:31.028Z,10
2018-01-29T04:28:33.533Z,10
2018-01-29T04:29:36.029Z,10
2018-01-29T04:30:38.528Z,10
2018-01-29T04:31:41.026Z,10
2018-01-29T04:32:43.519Z,10
2018-01-29T04:33:46.012Z,10
2018-01-29T04:34:48.506Z,10
2018-01-29T04:35:51.009Z,10
2018-01-29T04:36:53.502Z,10
2018-01-29T04:37:55.994Z,10
2018-01-29T04:38:58.778Z,10
2018-01-29T04:40:01.272Z,10
2018-01-29T04:41:03.835Z,10
2018-01-29T04:42:06.335Z,10
2018-01-29T04:43:08.830Z,10
2018-01-29T04:44:11.328Z,10
2018-01-29T04:45:13.829Z,10
2018-01-29T04:46:16.333Z,10
2018-01-29T04:47:19.118Z,10
2018-01-29T04:48:21.608Z,10
2018-01-29T04:49:24.108Z,10
2018-01-29T04:50:26.624Z,10
2018-01-29T04:51:29.116Z,10
2018-01-29T04:52:31.609Z,10
2018-01-29T04:53:34.103Z,10
2018-01-29T04:54:36.891Z,10
2018-01-29T04:55:39.395Z,10
2018-01-29T04:56:42.188Z,10
2018-01-29T04:57:44.976Z,10
2018-01-29T04:58:48.068Z,10
2018-01-29T04:59:50.568Z,9.9
2018-01-29T05:00:53.063Z,10
2018-01-29T05:01:55.565Z,10
2018-01-29T05:02:58.051Z,9.9
2018-01-29T05:04:00.555Z,9.9
2018-01-29T05:05:03.346Z,9.9
2018-01-29T05:06:05.849Z,9.9
2018-01-29T05:07:08.339Z,9.9
2018-01-29T05:08:11.131Z,9.9
2018-01-29T05:09:13.631Z,9.9
2018-01-29T05:10:16.135Z,9.9
2018-01-29T05:11:18.634Z,9.8
2018-01-29T05:12:21.131Z,9.9
2018-01-29T05:13:23.621Z,9.9
2018-01-29T05:14:26.170Z,9.9
2018-01-29T05:15:28.705Z,9.9
2018-01-29T05:16:31.199Z,9.9
2018-01-29T05:17:33.702Z,9.9
2018-01-29T05:18:36.189Z,9.9
2018-01-29T05:19:38.692Z,9.9
2018-01-29T05:20:41.194Z,9.9
2018-01-29T05:21:43.682Z,9.9
2018-01-29T05:22:46.184Z,9.9
2018-01-29T05:23:48.695Z,9.9
2018-01-29T05:24:51.471Z,9.9
2018-01-29T05:25:53.984Z,10
2018-01-29T05:26:56.490Z,10
2018-01-29T05:27:58.988Z,10
2018-01-29T05:29:01.485Z,10
2018-01-29T05:30:03.986Z,10
2018-01-29T05:31:06.465Z,10
2018-01-29T05:32:08.971Z,10
2018-01-29T05:33:11.464Z,10
2018-01-29T05:34:13.966Z,10
2018-01-29T05:35:16.756Z,10.1
2018-01-29T05:36:19.264Z,10.1
2018-01-29T05:37:21.767Z,10
2018-01-29T05:38:24.246Z,10.1
2018-01-29T05:39:26.751Z,10.1
2018-01-29T05:40:29.248Z,10.1
2018-01-29T05:41:31.737Z,10
2018-01-29T05:42:34.228Z,10
2018-01-29T05:43:37.010Z,10
2018-01-29T05:44:39.791Z,10
2018-01-29T05:45:42.301Z,10
2018-01-29T05:46:44.794Z,10
2018-01-29T05:47:47.285Z,10
2018-01-29T05:48:49.790Z,10
2018-01-29T05:49:52.273Z,10
2018-01-29T05:50:54.778Z,9.9
2018-01-29T05:51:57.877Z,10
2018-01-29T05:53:00.372Z,9.9
2018-01-29T05:54:02.878Z,10
2018-01-29T05:55:05.372Z,10
2018-01-29T05:56:07.866Z,9.9
2018-01-29T05:57:10.387Z,9.9
2018-01-29T05:58:12.882Z,9.9
2018-01-29T05:59:15.371Z,9.9
2018-01-29T06:00:17.864Z,9.9
2018-01-29T06:01:20.375Z,9.9
2018-01-29T06:02:22.856Z,9.9
2018-01-29T06:03:25.645Z,9.9
2018-01-29T06:04:28.448Z,9.9
2018-01-29T06:05:30.945Z,9.9
2018-01-29T06:06:33.447Z,9.9
2018-01-29T06:07:35.942Z,9.8
2018-01-29T06:08:38.435Z,9.8
2018-01-29T06:09:41.234Z,9.8
2018-01-29T06:10:44.032Z,9.8
2018-01-29T06:11:46.515Z,9.9
2018-01-29T06:12:49.014Z,9.8
2018-01-29T06:13:51.518Z,9.8
2018-01-29T06:14:54.019Z,9.8
2018-01-29T06:15:56.515Z,9.8
2018-01-29T06:16:59.011Z,9.8
2018-01-29T06:18:01.510Z,9.8
2018-01-29T06:19:04.012Z,9.9
2018-01-29T06:20:06.507Z,9.9
2018-01-29T06:21:09.280Z,9.9
2018-01-29T06:22:11.785Z,9.9
2018-01-29T06:23:14.285Z,9.9
2018-01-29T06:24:16.777Z,9.8
2018-01-29T06:25:19.273Z,9.9
2018-01-29T06:26:21.780Z,9.9
2018-01-29T06:27:24.269Z,9.9
2018-01-29T06:28:26.794Z,9.9
2018-01-29T06:29:29.280Z,10
2018-01-29T06:30:31.776Z,10
2018-01-29T06:31:34.280Z,10
2018-01-29T06:32:36.780Z,10
2018-01-29T06:33:39.277Z,10
2018-01-29T06:34:42.068Z,10
2018-01-29T06:35:44.565Z,9.9
2018-01-29T06:36:47.067Z,9.9
2018-01-29T06:37:49.850Z,9.9
2018-01-29T06:38:52.354Z,9.9
2018-01-29T06:39:54.848Z,9.9
2018-01-29T06:40:57.346Z,10
2018-01-29T06:41:59.848Z,9.9
2018-01-29T06:43:02.345Z,10
2018-01-29T06:44:05.128Z,10
2018-01-29T06:45:07.633Z,10
2018-01-29T06:46:10.120Z,9.9
2018-01-29T06:47:12.630Z,10
2018-01-29T06:48:15.424Z,9.9
2018-01-29T06:49:17.916Z,9.9
2018-01-29T06:50:20.422Z,9.9
2018-01-29T06:51:22.921Z,9.9
2018-01-29T06:52:25.415Z,10
2018-01-29T06:53:27.921Z,10
2018-01-29T06:54:30.400Z,10
2018-01-29T06:55:32.900Z,10
2018-01-29T06:56:35.410Z,10
2018-01-29T06:57:37.907Z,9.9
2018-01-29T06:58:40.413Z,9.9
2018-01-29T06:59:42.900Z,9.9
2018-01-29T07:00:45.396Z,9.9
2018-01-29T07:01:48.195Z,9.9
2018-01-29T07:02:50.684Z,9.9
2018-01-29T07:03:53.190Z,9.9
2018-01-29T07:04:55.965Z,9.9
2018-01-29T07:05:58.465Z,9.9
2018-01-29T07:07:00.965Z,9.8
2018-01-29T07:08:03.744Z,9.9
2018-01-29T07:09:06.241Z,9.9
2018-01-29T07:10:08.743Z,9.8
2018-01-29T07:11:11.247Z,9.9
2018-01-29T07:12:13.754Z,9.9
2018-01-29T07:13:16.242Z,9.9
2018-01-29T07:14:18.738Z,9.9
2018-01-29T07:15:21.526Z,9.9
2018-01-29T07:16:24.040Z,9.9
2018-01-29T07:17:26.532Z,9.9
2018-01-29T07:18:29.025Z,9.9
2018-01-29T07:19:31.522Z,9.8
2018-01-29T07:20:34.026Z,9.9
2018-01-29T07:21:36.529Z,9.8
2018-01-29T07:22:39.030Z,9.9
2018-01-29T07:23:41.518Z,9.9
2018-01-29T07:24:44.016Z,9.9
2018-01-29T07:25:46.513Z,9.8
2018-01-29T07:26:49.019Z,9.8
2018-01-29T07:27:51.510Z,9.8
2018-01-29T07:28:54.014Z,9.8
2018-01-29T07:29:56.517Z,9.8
2018-01-29T07:30:59.012Z,9.8
2018-01-29T07:32:01.507Z,9.8
2018-01-29T07:33:03.996Z,9.8
2018-01-29T07:34:06.494Z,9.8
2018-01-29T07:35:08.986Z,9.8
2018-01-29T07:36:11.485Z,9.8
2018-01-29T07:37:13.996Z,9.9
2018-01-29T07:38:16.493Z,9.8
2018-01-29T07:39:19.278Z,9.8
2018-01-29T07:40:21.790Z,9.8
2018-01-29T07:41:24.286Z,9.8
2018-01-29T07:42:26.785Z,9.8
2018-01-29T07:43:29.583Z,9.8
2018-01-29T07:44:32.353Z,9.8
2018-01-29T07:45:35.151Z,9.8
2018-01-29T07:46:37.651Z,9.8
2018-01-29T07:47:40.145Z,9.8
2018-01-29T07:48:42.646Z,9.8
2018-01-29T07:49:45.138Z,9.8
2018-01-29T07:50:47.632Z,9.8
2018-01-29T07:51:50.155Z,9.8
2018-01-29T07:52:52.644Z,9.8
2018-01-29T07:53:55.139Z,9.8
2018-01-29T07:54:57.642Z,9.8
2018-01-29T07:56:00.132Z,9.8
2018-01-29T07:57:02.636Z,9.7
2018-01-29T07:58:05.722Z,9.7
2018-01-29T07:59:08.205Z,9.7
2018-01-29T08:00:10.709Z,9.7
2018-01-29T08:01:13.219Z,9.7
2018-01-29T08:02:15.717Z,9.7
2018-01-29T08:03:18.202Z,9.7
2018-01-29T08:04:20.704Z,9.7
2018-01-29T08:05:23.208Z,9.7
2018-01-29T08:06:25.700Z,9.7
2018-01-29T08:07:28.201Z,9.7
2018-01-29T08:08:30.701Z,9.7
2018-01-29T08:09:33.187Z,9.7
2018-01-29T08:10:35.705Z,9.7
2018-01-29T08:11:38.488Z,9.7
2018-01-29T08:12:40.983Z,9.6
2018-01-29T08:13:43.475Z,9.6
2018-01-29T08:14:45.968Z,9.6
2018-01-29T08:15:48.778Z,9.6
2018-01-29T08:16:51.268Z,9.6
2018-01-29T08:17:53.750Z,9.6
2018-01-29T08:18:56.250Z,9.6
2018-01-29T08:19:58.754Z,9.5
2018-01-29T08:21:01.255Z,9.6
2018-01-29T08:22:03.755Z,9.6
2018-01-29T08:23:06.242Z,9.6
2018-01-29T08:24:08.748Z,9.6
2018-01-29T08:25:11.258Z,9.6
2018-01-29T08:26:14.045Z,9.6
2018-01-29T08:27:16.532Z,9.6
2018-01-29T08:28:19.021Z,9.6
2018-01-29T08:29:21.522Z,9.7
2018-01-29T08:30:24.017Z,9.7
2018-01-29T08:31:26.516Z,9.6
2018-01-29T08:32:29.021Z,9.6
2018-01-29T08:33:31.807Z,9.6
2018-01-29T08:34:34.315Z,9.6
2018-01-29T08:35:36.803Z,9.6
2018-01-29T08:36:39.602Z,9.6
2018-01-29T08:37:42.388Z,9.6
2018-01-29T08:38:44.888Z,9.6
2018-01-29T08:39:47.389Z,9.6
2018-01-29T08:40:49.882Z,9.6
2018-01-29T08:41:52.386Z,9.6
2018-01-29T08:42:55.219Z,9.6
2018-01-29T08:43:57.702Z,9.6
2018-01-29T08:45:00.209Z,9.6
2018-01-29T08:46:02.711Z,9.6
2018-01-29T08:47:05.206Z,9.6
2018-01-29T08:48:07.699Z,9.6
2018-01-29T08:49:10.197Z,9.6
2018-01-29T08:50:12.690Z,9.6
2018-01-29T08:51:15.201Z,9.6
2018-01-29T08:52:18.264Z,9.6
2018-01-29T08:53:20.766Z,9.6
2018-01-29T08:54:23.264Z,9.6
2018-01-29T08:55:25.760Z,9.6
2018-01-29T08:56:28.557Z,9.7
2018-01-29T08:57:31.056Z,9.7
2018-01-29T08:58:33.826Z,9.7
2018-01-29T08:59:36.622Z,9.7
2018-01-29T09:00:39.400Z,9.7
2018-01-29T09:01:41.901Z,9.7
2018-01-29T09:02:44.693Z,9.7
2018-01-29T09:03:47.193Z,9.7
2018-01-29T09:04:49.687Z,9.7
2018-01-29T09:05:52.186Z,9.7
2018-01-29T09:06:55.017Z,9.7
2018-01-29T09:07:57.484Z,9.7
2018-01-29T09:09:00.277Z,9.7
2018-01-29T09:10:02.768Z,9.8
2018-01-29T09:11:05.270Z,9.8
2018-01-29T09:12:07.773Z,9.7
2018-01-29T09:13:10.268Z,9.7
2018-01-29T09:14:12.769Z,9.7
2018-01-29T09:15:15.270Z,9.7
2018-01-29T09:16:17.762Z,9.7
2018-01-29T09:17:20.259Z,9.6
2018-01-29T09:18:23.045Z,9.6
2018-01-29T09:19:25.537Z,9.6
2018-01-29T09:20:28.042Z,9.6
2018-01-29T09:21:30.544Z,9.7
2018-01-29T09:22:33.051Z,9.6
2018-01-29T09:23:35.838Z,9.7
2018-01-29T09:24:38.329Z,9.7
2018-01-29T09:25:40.831Z,9.7
2018-01-29T09:26:43.330Z,9.8
2018-01-29T09:27:46.122Z,9.7
2018-01-29T09:28:48.630Z,9.8
2018-01-29T09:29:51.120Z,9.7
2018-01-29T09:30:53.623Z,9.7
2018-01-29T09:31:56.115Z,9.8
2018-01-29T09:32:58.609Z,9.8
2018-01-29T09:34:01.126Z,9.7
2018-01-29T09:35:03.620Z,9.8
2018-01-29T09:36:06.112Z,9.7
2018-01-29T09:37:08.610Z,9.7
2018-01-29T09:38:11.102Z,9.7
2018-01-29T09:39:13.912Z,9.8
2018-01-29T09:40:16.421Z,9.8
2018-01-29T09:41:18.909Z,9.8
2018-01-29T09:42:21.407Z,9.8
2018-01-29T09:43:24.212Z,9.8
2018-01-29T09:44:26.713Z,9.8
2018-01-29T09:45:29.289Z,9.8
2018-01-29T09:46:31.707Z,9.8
2018-01-29T09:47:34.209Z,9.8
2018-01-29T09:48:36.714Z,9.8
2018-01-29T09:49:39.212Z,9.8
2018-01-29T09:50:42.298Z,9.8
2018-01-29T09:51:45.090Z,9.8
2018-01-29T09:52:47.592Z,9.8
2018-01-29T09:53:50.661Z,9.7
2018-01-29T09:54:53.168Z,9.7
2018-01-29T09:55:55.936Z,9.7
2018-01-29T09:56:58.438Z,9.6
2018-01-29T09:58:00.952Z,9.6
2018-01-29T09:59:03.751Z,9.6
2018-01-29T10:00:06.237Z,9.6
2018-01-29T10:01:08.737Z,9.6
2018-01-29T10:02:11.234Z,9.5
2018-01-29T10:03:13.730Z,9.5
2018-01-29T10:04:16.224Z,9.5
2018-01-29T10:05:19.086Z,9.5
2018-01-29T10:06:21.862Z,9.5
2018-01-29T10:07:24.370Z,9.5
2018-01-29T10:08:26.869Z,9.5
2018-01-29T10:09:29.366Z,9.4
2018-01-29T10:10:31.873Z,9.4
2018-01-29T10:11:34.364Z,9.4
2018-01-29T10:12:36.858Z,9.4
2018-01-29T10:13:39.408Z,9.4
2018-01-29T10:14:41.850Z,9.4
2018-01-29T10:15:44.644Z,9.4
2018-01-29T10:16:47.162Z,9.4
2018-01-29T10:17:49.935Z,9.4
2018-01-29T10:18:52.476Z,9.4
2018-01-29T10:19:55.289Z,9.4
2018-01-29T10:20:58.204Z,9.4
2018-01-29T10:22:00.963Z,9.4
2018-01-29T10:23:03.774Z,9.4
2018-01-29T10:24:06.385Z,9.3
2018-01-29T10:25:08.890Z,9.4
2018-01-29T10:26:11.386Z,9.4
2018-01-29T10:27:13.892Z,9.4
2018-01-29T10:28:16.688Z,9.4
2018-01-29T10:29:19.190Z,9.4
2018-01-29T10:30:21.690Z,9.4
2018-01-29T10:31:24.454Z,9.4
2018-01-29T10:32:26.962Z,9.3
2018-01-29T10:33:29.473Z,9.3
2018-01-29T10:34:31.968Z,9.3
2018-01-29T10:35:34.466Z,9.3
2018-01-29T10:36:36.966Z,9.3
2018-01-29T10:37:39.464Z,9.3
2018-01-29T10:38:41.973Z,9.3
2018-01-29T10:39:44.459Z,9.3
2018-01-29T10:40:46.945Z,9.3
2018-01-29T10:41:49.455Z,9.4
2018-01-29T10:42:51.956Z,9.4
2018-01-29T10:43:54.456Z,9.4
2018-01-29T10:44:57.253Z,9.4
2018-01-29T10:45:59.743Z,9.4
2018-01-29T10:47:02.244Z,9.4
2018-01-29T10:48:04.750Z,9.4
2018-01-29T10:49:07.241Z,9.3
2018-01-29T10:50:09.736Z,9.4
2018-01-29T10:51:12.235Z,9.3
2018-01-29T10:52:14.733Z,9.3
2018-01-29T10:53:17.241Z,9.3
2018-01-29T10:54:19.743Z,9.3
2018-01-29T10:55:22.218Z,9.3
2018-01-29T10:56:25.302Z,9.2
2018-01-29T10:57:28.100Z,9.2
2018-01-29T10:58:30.598Z,9.2
2018-01-29T10:59:33.100Z,9.2
2018-01-29T11:00:35.645Z,9.2
2018-01-29T11:01:38.092Z,9.2
2018-01-29T11:02:40.589Z,9.2
2018-01-29T11:03:43.083Z,9.1
2018-01-29T11:04:45.596Z,9.1
2018-01-29T11:05:48.092Z,9
2018-01-29T11:06:50.887Z,9
2018-01-29T11:07:53.384Z,9
2018-01-29T11:08:55.882Z,8.9
2018-01-29T11:09:58.408Z,8.9
2018-01-29T11:11:00.915Z,8.9
2018-01-29T11:12:03.683Z,8.9
2018-01-29T11:13:06.476Z,8.9
2018-01-29T11:14:09.244Z,8.9
2018-01-29T11:15:11.741Z,8.9
2018-01-29T11:16:14.245Z,8.9
2018-01-29T11:17:17.020Z,8.9
2018-01-29T11:18:19.515Z,8.9
2018-01-29T11:19:22.313Z,8.9
2018-01-29T11:20:24.802Z,8.9
2018-01-29T11:21:27.317Z,8.9
2018-01-29T11:22:29.809Z,9
2018-01-29T11:23:32.586Z,9
2018-01-29T11:24:35.087Z,9
2018-01-29T11:25:37.584Z,9
2018-01-29T11:26:40.363Z,9
2018-01-29T11:27:43.152Z,9
2018-01-29T11:28:45.962Z,9
2018-01-29T11:29:48.458Z,8.9
2018-01-29T11:30:50.950Z,8.9
2018-01-29T11:31:53.443Z,8.9
2018-01-29T11:32:55.937Z,8.9
2018-01-29T11:33:58.441Z,8.9
2018-01-29T11:35:01.231Z,8.9
2018-01-29T11:36:03.717Z,8.9
2018-01-29T11:37:06.214Z,8.9
2018-01-29T11:38:08.723Z,8.9
2018-01-29T11:39:11.574Z,8.9
2018-01-29T11:40:14.070Z,8.9
2018-01-29T11:41:16.569Z,8.9
2018-01-29T11:42:19.066Z,8.9
2018-01-29T11:43:21.571Z,8.8
2018-01-29T11:44:24.065Z,8.8
2018-01-29T11:45:26.553Z,8.8
2018-01-29T11:46:29.056Z,8.8
2018-01-29T11:47:31.850Z,8.8
2018-01-29T11:48:34.344Z,8.8
2018-01-29T11:49:36.840Z,8.8
2018-01-29T11:50:39.343Z,8.8
2018-01-29T11:51:42.126Z,8.7
2018-01-29T11:52:44.914Z,8.8
2018-01-29T11:53:47.413Z,8.8
2018-01-29T11:54:49.892Z,8.8
2018-01-29T11:55:52.402Z,8.7
2018-01-29T11:56:55.473Z,8.8
2018-01-29T11:57:57.978Z,8.7
2018-01-29T11:59:00.476Z,8.7
2018-01-29T12:00:02.980Z,8.7
2018-01-29T12:01:05.479Z,8.7
2018-01-29T12:02:07.956Z,8.7
2018-01-29T12:03:10.750Z,8.7
2018-01-29T12:04:13.537Z,8.6
2018-01-29T12:05:16.031Z,8.6
2018-01-29T12:06:18.533Z,8.6
2018-01-29T12:07:21.025Z,8.6
2018-01-29T12:08:23.517Z,8.6
2018-01-29T12:09:26.026Z,8.6
2018-01-29T12:10:28.526Z,8.6
2018-01-29T12:11:31.006Z,8.6
2018-01-29T12:12:33.513Z,8.6
2018-01-29T12:13:36.010Z,8.6
2018-01-29T12:14:38.509Z,8.6
2018-01-29T12:15:41.303Z,8.6
2018-01-29T12:16:43.797Z,8.6
2018-01-29T12:17:46.294Z,8.6
2018-01-29T12:18:48.797Z,8.6
2018-01-29T12:19:51.284Z,8.7
2018-01-29T12:20:53.786Z,8.6
2018-01-29T12:21:56.281Z,8.6
2018-01-29T12:22:58.764Z,8.6
2018-01-29T12:24:01.256Z,8.6
2018-01-29T12:25:04.046Z,8.7
2018-01-29T12:26:06.542Z,8.6
2018-01-29T12:27:09.033Z,8.6
2018-01-29T12:28:11.849Z,8.6
2018-01-29T12:29:14.346Z,8.6
2018-01-29T12:30:16.850Z,8.6
2018-01-29T12:31:19.631Z,8.6
2018-01-29T12:32:22.133Z,8.6
2018-01-29T12:33:24.619Z,8.6
2018-01-29T12:34:27.131Z,8.6
2018-01-29T12:35:29.624Z,8.6
2018-01-29T12:36:32.420Z,8.6
2018-01-29T12:37:34.915Z,8.6
2018-01-29T12:38:37.413Z,8.6
2018-01-29T12:39:39.908Z,8.6
2018-01-29T12:40:42.721Z,8.6
2018-01-29T12:41:45.221Z,8.6
2018-01-29T12:42:48.332Z,8.6
2018-01-29T12:43:50.826Z,8.7
2018-01-29T12:44:53.328Z,8.7
2018-01-29T12:45:56.102Z,8.7
2018-01-29T12:46:58.611Z,8.7
2018-01-29T12:48:01.102Z,8.7
2018-01-29T12:49:03.600Z,8.7
2018-01-29T12:50:06.098Z,8.6
2018-01-29T12:51:08.876Z,8.7
2018-01-29T12:52:11.377Z,8.7
2018-01-29T12:53:13.882Z,8.6
2018-01-29T12:54:16.361Z,8.7
2018-01-29T12:55:18.861Z,8.7
2018-01-29T12:56:21.365Z,8.7
2018-01-29T12:57:23.865Z,8.7
2018-01-29T12:58:26.368Z,8.7
2018-01-29T12:59:28.850Z,8.7
2018-01-29T13:00:31.345Z,8.7
2018-01-29T13:01:33.847Z,8.7
2018-01-29T13:02:36.338Z,8.7
2018-01-29T13:03:38.836Z,8.7
2018-01-29T13:04:41.334Z,8.7
2018-01-29T13:05:43.830Z,8.7
2018-01-29T13:06:46.341Z,8.7
2018-01-29T13:07:48.838Z,8.7
2018-01-29T13:08:51.318Z,8.7
2018-01-29T13:09:53.821Z,8.7
2018-01-29T13:10:56.318Z,8.7
2018-01-29T13:11:58.812Z,8.7
2018-01-29T13:13:01.317Z,8.7
2018-01-29T13:14:03.817Z,8.7
2018-01-29T13:15:06.312Z,8.7
2018-01-29T13:16:08.807Z,8.7
2018-01-29T13:17:11.291Z,8.7
2018-01-29T13:18:13.780Z,8.7
2018-01-29T13:19:16.287Z,8.7
2018-01-29T13:20:19.055Z,8.7
2018-01-29T13:21:21.559Z,8.7
2018-01-29T13:22:24.060Z,8.7
2018-01-29T13:23:26.553Z,8.7
2018-01-29T13:24:29.062Z,8.7
2018-01-29T13:25:31.555Z,8.7
2018-01-29T13:26:34.060Z,8.7
2018-01-29T13:27:36.548Z,8.7
2018-01-29T13:28:39.040Z,8.7
2018-01-29T13:29:41.826Z,8.7
2018-01-29T13:30:44.321Z,8.7
2018-01-29T13:31:46.810Z,8.7
2018-01-29T13:32:49.316Z,8.7
2018-01-29T13:33:51.809Z,8.7
2018-01-29T13:34:54.321Z,8.7
2018-01-29T13:35:56.815Z,8.7
2018-01-29T13:36:59.313Z,8.7
2018-01-29T13:38:01.807Z,8.7
2018-01-29T13:39:04.310Z,8.7
2018-01-29T13:40:07.081Z,8.7
2018-01-29T13:41:09.577Z,8.7
2018-01-29T13:42:12.064Z,8.7
2018-01-29T13:43:14.579Z,8.7
2018-01-29T13:44:17.075Z,8.7
2018-01-29T13:45:19.559Z,8.7
2018-01-29T13:46:22.058Z,8.7
2018-01-29T13:47:24.548Z,8.8
2018-01-29T13:48:27.334Z,8.7
2018-01-29T13:49:29.836Z,8.7
2018-01-29T13:50:32.334Z,8.7
2018-01-29T13:51:34.826Z,8.7
2018-01-29T13:52:37.345Z,8.7
2018-01-29T13:53:39.862Z,8.7
2018-01-29T13:54:42.663Z,8.7
2018-01-29T13:55:45.474Z,8.7
2018-01-29T13:56:47.991Z,8.7
2018-01-29T13:57:50.488Z,8.7
2018-01-29T13:58:53.004Z,8.7
2018-01-29T13:59:55.504Z,8.7
2018-01-29T14:00:58.310Z,8.8
2018-01-29T14:02:00.820Z,8.7
2018-01-29T14:03:03.340Z,8.7
2018-01-29T14:04:06.140Z,8.7
2018-01-29T14:05:08.655Z,8.7
2018-01-29T14:06:11.435Z,8.7
2018-01-29T14:07:13.937Z,8.7
2018-01-29T14:08:16.420Z,8.8
2018-01-29T14:09:18.922Z,8.8
2018-01-29T14:10:22.001Z,8.8
2018-01-29T14:11:24.492Z,8.8
2018-01-29T14:12:26.984Z,8.8
2018-01-29T14:13:29.484Z,8.8
2018-01-29T14:14:31.979Z,8.8
2018-01-29T14:15:34.484Z,8.7